General Mitchell International Airport
KMKE : now visible

Airfield :











YOU CAN JOIN US ON...

 
LOGIN :

Register | Disclaimer

   EN    FR    IT 

 









Legend :    VFR   Marginal VFR   IFR   Intensive IFR   Very Intensive IFR
Visi :
Ceiling :
>= 8 km
>= 3000ft
5 to 8 km
1000 to 3000 ft
1500m to 5 km
500 to 1000 ft
800 to 1500m
200 to 500 ft
< 800m
< 200 ft
Symbols :   Thunderstorms  Fog  Heavy snow  Heavy precipitations  Wind > 20 kt







- Airport Elevation : 723 ft
- IATA code : MKE


KMKE - General Mitchell International

CURRENT METAR :
  • 192252Z 14008KT 10SM BKN250 M03/M10 A3048 RMK AO2 SLP336 T10331100 $

EXPIRED METARs :
  • 192152Z 14008KT 10SM BKN250 M03/M11 A3048 RMK AO2 SLP335 T10281106
  • 192052Z 21006KT 10SM BKN250 M02/M11 A3051 RMK AO2 SLP343 T10221111 56028

TAF KMKE
Valid from the 20 at 00:00 until the 21 at 06:00 UTC


192320Z 2000/2106 14008KT P6SM OVC250
FM200900 10009KT P6SM VCSH OVC080
FM201100 10012KT 5SM -SN OVC040
FM201400 10015G23KT 2SM -SN OVC015
FM201600 11015G24KT 1 1/2SM FZRASN OVC008
FM202000 14013KT 1SM -FZRA OVC003
FM202200 16011KT 3SM -RA OVC008
FM210100 21010KT P6SM OVC010
KZAU FIR / North America



MET'MAP, your aeronautical weather chart ! - Copyright ORBIFLY December 2007 - Disclaimer

ORBIFLY MET'MAP TEAM :

Programming & Development : Alexandra Zaïnal
Concept & Development : Baudouin d'Aumeries
Co-Development & Prog : Marc-Olivier Méhu
Technical & hardware support : Manuel Goepfert

Contact : metmap@orbifly.com




SOURCES & CREDITS :

   NOAA       Earth
Advisory